sensor_id;sensor_type;location;lat;lon;timestamp;P1;durP1;ratioP1;P2;durP2;ratioP2
40669;SDS011;26355;45.528;9.234;2023-04-01T00:00:27;16.00;;;6.38;;
40669;SDS011;26355;45.528;9.234;2023-04-01T00:02:53;15.65;;;6.68;;
40669;SDS011;26355;45.528;9.234;2023-04-01T00:05:19;15.57;;;5.85;;
40669;SDS011;26355;45.528;9.234;2023-04-01T00:07:45;14.07;;;5.57;;
40669;SDS011;26355;45.528;9.234;2023-04-01T00:10:11;14.43;;;5.80;;
40669;SDS011;26355;45.528;9.234;2023-04-01T00:12:38;17.30;;;5.97;;
40669;SDS011;26355;45.528;9.234;2023-04-01T00:15:06;14.53;;;5.57;;
40669;SDS011;26355;45.528;9.234;2023-04-01T00:17:33;16.10;;;5.57;;
40669;SDS011;26355;45.528;9.234;2023-04-01T00:19:59;14.65;;;5.78;;
40669;SDS011;26355;45.528;9.234;2023-04-01T00:22:25;13.35;;;5.38;;
40669;SDS011;26355;45.528;9.234;2023-04-01T00:24:51;13.43;;;5.40;;
40669;SDS011;26355;45.528;9.234;2023-04-01T00:27:17;14.05;;;5.22;;
40669;SDS011;26355;45.528;9.234;2023-04-01T00:29:44;14.50;;;5.15;;
40669;SDS011;26355;45.528;9.234;2023-04-01T00:32:10;14.63;;;5.68;;
40669;SDS011;26355;45.528;9.234;2023-04-01T00:34:36;15.65;;;5.90;;
40669;SDS011;26355;45.528;9.234;2023-04-01T00:37:02;15.68;;;5.57;;
40669;SDS011;26355;45.528;9.234;2023-04-01T00:39:29;13.80;;;5.05;;
40669;SDS011;26355;45.528;9.234;2023-04-01T00:41:55;13.15;;;5.45;;
40669;SDS011;26355;45.528;9.234;2023-04-01T00:44:29;14.13;;;5.78;;
40669;SDS011;26355;45.528;9.234;2023-04-01T00:46:57;13.40;;;5.28;;
40669;SDS011;26355;45.528;9.234;2023-04-01T00:49:25;12.68;;;4.85;;
40669;SDS011;26355;45.528;9.234;2023-04-01T00:51:58;13.55;;;4.70;;
40669;SDS011;26355;45.528;9.234;2023-04-01T00:54:25;12.70;;;4.88;;
40669;SDS011;26355;45.528;9.234;2023-04-01T00:59:27;14.07;;;4.85;;
40669;SDS011;26355;45.528;9.234;2023-04-01T01:01:56;13.18;;;4.70;;
40669;SDS011;26355;45.528;9.234;2023-04-01T01:04:32;14.43;;;5.22;;
40669;SDS011;26355;45.528;9.234;2023-04-01T01:07:09;13.57;;;4.38;;
40669;SDS011;26355;45.528;9.234;2023-04-01T01:12:39;12.90;;;5.18;;
40669;SDS011;26355;45.528;9.234;2023-04-01T01:23:48;14.32;;;5.15;;
40669;SDS011;26355;45.528;9.234;2023-04-01T01:29:13;13.82;;;5.38;;
40669;SDS011;26355;45.528;9.234;2023-04-01T01:37:33;11.85;;;4.30;;
40669;SDS011;26355;45.528;9.234;2023-04-01T01:40:01;13.43;;;4.82;;
40669;SDS011;26355;45.528;9.234;2023-04-01T01:42:31;12.25;;;4.07;;
40669;SDS011;26355;45.528;9.234;2023-04-01T01:45:00;11.85;;;4.68;;
40669;SDS011;26355;45.528;9.234;2023-04-01T01:47:27;14.20;;;5.05;;
40669;SDS011;26355;45.528;9.234;2023-04-01T01:49:54;11.25;;;4.30;;
40669;SDS011;26355;45.528;9.234;2023-04-01T01:52:27;12.15;;;4.45;;
40669;SDS011;26355;45.528;9.234;2023-04-01T01:54:54;13.65;;;5.13;;
40669;SDS011;26355;45.528;9.234;2023-04-01T01:57:54;15.27;;;4.63;;
40669;SDS011;26355;45.528;9.234;2023-04-01T02:00:13;12.77;;;4.32;;
40669;SDS011;26355;45.528;9.234;2023-04-01T02:02:40;12.90;;;4.68;;
40669;SDS011;26355;45.528;9.234;2023-04-01T02:05:15;14.63;;;4.75;;
40669;SDS011;26355;45.528;9.234;2023-04-01T02:07:44;14.95;;;4.95;;
40669;SDS011;26355;45.528;9.234;2023-04-01T02:10:16;15.93;;;5.40;;
40669;SDS011;26355;45.528;9.234;2023-04-01T02:12:44;15.32;;;4.97;;
40669;SDS011;26355;45.528;9.234;2023-04-01T02:15:15;15.05;;;5.07;;
40669;SDS011;26355;45.528;9.234;2023-04-01T02:17:43;17.23;;;5.32;;
40669;SDS011;26355;45.528;9.234;2023-04-01T02:20:20;15.65;;;6.05;;
40669;SDS011;26355;45.528;9.234;2023-04-01T02:22:52;15.10;;;5.50;;
40669;SDS011;26355;45.528;9.234;2023-04-01T02:25:21;14.57;;;5.80;;
40669;SDS011;26355;45.528;9.234;2023-04-01T02:27:52;15.80;;;6.20;;
40669;SDS011;26355;45.528;9.234;2023-04-01T02:30:20;13.88;;;5.10;;
40669;SDS011;26355;45.528;9.234;2023-04-01T02:32:46;15.10;;;5.47;;
40669;SDS011;26355;45.528;9.234;2023-04-01T02:35:13;16.92;;;5.65;;
40669;SDS011;26355;45.528;9.234;2023-04-01T02:37:44;16.48;;;5.80;;
40669;SDS011;26355;45.528;9.234;2023-04-01T02:40:13;15.07;;;5.30;;
40669;SDS011;26355;45.528;9.234;2023-04-01T02:42:40;14.98;;;5.88;;
40669;SDS011;26355;45.528;9.234;2023-04-01T02:45:06;14.40;;;5.63;;
40669;SDS011;26355;45.528;9.234;2023-04-01T02:47:32;16.20;;;5.80;;
40669;SDS011;26355;45.528;9.234;2023-04-01T02:50:01;15.93;;;5.70;;
40669;SDS011;26355;45.528;9.234;2023-04-01T02:52:28;16.92;;;5.32;;
40669;SDS011;26355;45.528;9.234;2023-04-01T02:54:55;15.82;;;5.43;;
40669;SDS011;26355;45.528;9.234;2023-04-01T02:59:48;13.48;;;5.22;;
40669;SDS011;26355;45.528;9.234;2023-04-01T03:02:13;13.50;;;5.32;;
40669;SDS011;26355;45.528;9.234;2023-04-01T03:04:39;13.52;;;5.22;;
40669;SDS011;26355;45.528;9.234;2023-04-01T03:07:09;15.88;;;5.90;;
40669;SDS011;26355;45.528;9.234;2023-04-01T03:09:35;15.43;;;5.32;;
40669;SDS011;26355;45.528;9.234;2023-04-01T03:12:02;13.67;;;5.10;;
40669;SDS011;26355;45.528;9.234;2023-04-01T03:14:27;14.75;;;5.32;;
40669;SDS011;26355;45.528;9.234;2023-04-01T03:16:53;14.63;;;5.95;;
40669;SDS011;26355;45.528;9.234;2023-04-01T03:19:18;14.32;;;5.32;;
40669;SDS011;26355;45.528;9.234;2023-04-01T03:21:44;14.55;;;5.30;;
40669;SDS011;26355;45.528;9.234;2023-04-01T03:24:10;13.65;;;4.90;;
40669;SDS011;26355;45.528;9.234;2023-04-01T03:26:35;14.68;;;5.20;;
40669;SDS011;26355;45.528;9.234;2023-04-01T03:29:01;13.63;;;4.93;;
40669;SDS011;26355;45.528;9.234;2023-04-01T03:31:26;13.07;;;4.88;;
40669;SDS011;26355;45.528;9.234;2023-04-01T03:33:55;13.90;;;4.75;;
40669;SDS011;26355;45.528;9.234;2023-04-01T03:36:20;14.65;;;5.07;;
40669;SDS011;26355;45.528;9.234;2023-04-01T03:38:46;12.52;;;4.63;;
40669;SDS011;26355;45.528;9.234;2023-04-01T03:41:12;14.70;;;5.25;;
40669;SDS011;26355;45.528;9.234;2023-04-01T03:43:39;13.20;;;4.82;;
40669;SDS011;26355;45.528;9.234;2023-04-01T03:46:05;12.43;;;4.80;;
40669;SDS011;26355;45.528;9.234;2023-04-01T03:48:30;13.32;;;4.45;;
40669;SDS011;26355;45.528;9.234;2023-04-01T03:50:56;14.30;;;4.63;;
40669;SDS011;26355;45.528;9.234;2023-04-01T03:53:22;14.70;;;4.57;;
40669;SDS011;26355;45.528;9.234;2023-04-01T03:55:47;11.88;;;4.55;;
40669;SDS011;26355;45.528;9.234;2023-04-01T03:58:13;10.88;;;4.20;;
40669;SDS011;26355;45.528;9.234;2023-04-01T04:00:38;12.77;;;4.40;;
40669;SDS011;26355;45.528;9.234;2023-04-01T04:03:05;11.57;;;4.10;;
40669;SDS011;26355;45.528;9.234;2023-04-01T04:05:31;12.55;;;3.95;;
40669;SDS011;26355;45.528;9.234;2023-04-01T04:07:57;12.38;;;3.90;;
40669;SDS011;26355;45.528;9.234;2023-04-01T04:10:29;12.32;;;3.83;;
40669;SDS011;26355;45.528;9.234;2023-04-01T04:13:01;10.82;;;3.65;;
40669;SDS011;26355;45.528;9.234;2023-04-01T04:15:26;11.82;;;4.18;;
40669;SDS011;26355;45.528;9.234;2023-04-01T04:17:52;12.00;;;4.30;;
40669;SDS011;26355;45.528;9.234;2023-04-01T04:20:17;13.43;;;3.72;;
40669;SDS011;26355;45.528;9.234;2023-04-01T04:22:46;11.65;;;3.92;;
40669;SDS011;26355;45.528;9.234;2023-04-01T04:25:11;9.52;;;3.40;;
40669;SDS011;26355;45.528;9.234;2023-04-01T04:27:40;11.52;;;3.63;;
40669;SDS011;26355;45.528;9.234;2023-04-01T04:30:07;12.48;;;3.65;;
40669;SDS011;26355;45.528;9.234;2023-04-01T04:32:33;13.90;;;4.07;;
40669;SDS011;26355;45.528;9.234;2023-04-01T04:34:59;13.23;;;4.40;;
40669;SDS011;26355;45.528;9.234;2023-04-01T04:37:25;11.85;;;3.80;;
40669;SDS011;26355;45.528;9.234;2023-04-01T04:39:50;12.05;;;4.00;;
40669;SDS011;26355;45.528;9.234;2023-04-01T04:42:19;13.45;;;4.07;;
40669;SDS011;26355;45.528;9.234;2023-04-01T04:44:45;13.13;;;4.10;;
40669;SDS011;26355;45.528;9.234;2023-04-01T04:47:10;13.98;;;4.28;;
40669;SDS011;26355;45.528;9.234;2023-04-01T04:49:36;11.68;;;4.10;;
40669;SDS011;26355;45.528;9.234;2023-04-01T04:52:01;12.00;;;3.85;;
40669;SDS011;26355;45.528;9.234;2023-04-01T04:54:27;12.77;;;3.90;;
40669;SDS011;26355;45.528;9.234;2023-04-01T04:56:53;11.98;;;3.70;;
40669;SDS011;26355;45.528;9.234;2023-04-01T04:59:18;10.60;;;3.75;;
40669;SDS011;26355;45.528;9.234;2023-04-01T05:01:44;12.15;;;3.80;;
40669;SDS011;26355;45.528;9.234;2023-04-01T05:04:10;15.30;;;4.40;;
40669;SDS011;26355;45.528;9.234;2023-04-01T05:06:35;11.57;;;4.03;;
40669;SDS011;26355;45.528;9.234;2023-04-01T05:09:01;12.25;;;4.18;;
40669;SDS011;26355;45.528;9.234;2023-04-01T05:11:27;10.40;;;3.67;;
40669;SDS011;26355;45.528;9.234;2023-04-01T05:13:52;13.38;;;4.50;;
40669;SDS011;26355;45.528;9.234;2023-04-01T05:16:18;14.55;;;4.32;;
40669;SDS011;26355;45.528;9.234;2023-04-01T05:18:45;13.13;;;4.40;;
40669;SDS011;26355;45.528;9.234;2023-04-01T05:21:12;15.88;;;4.53;;
40669;SDS011;26355;45.528;9.234;2023-04-01T05:23:39;12.55;;;3.83;;
40669;SDS011;26355;45.528;9.234;2023-04-01T05:26:10;11.00;;;3.38;;
40669;SDS011;26355;45.528;9.234;2023-04-01T05:28:38;12.07;;;4.03;;
40669;SDS011;26355;45.528;9.234;2023-04-01T05:31:04;14.70;;;3.90;;
40669;SDS011;26355;45.528;9.234;2023-04-01T05:33:31;11.48;;;3.90;;
40669;SDS011;26355;45.528;9.234;2023-04-01T05:36:05;11.20;;;3.20;;
40669;SDS011;26355;45.528;9.234;2023-04-01T05:38:31;12.20;;;3.53;;
40669;SDS011;26355;45.528;9.234;2023-04-01T05:41:01;10.45;;;3.38;;
40669;SDS011;26355;45.528;9.234;2023-04-01T05:43:32;13.75;;;4.13;;
40669;SDS011;26355;45.528;9.234;2023-04-01T05:46:01;9.52;;;3.28;;
40669;SDS011;26355;45.528;9.234;2023-04-01T05:48:27;11.82;;;3.78;;
40669;SDS011;26355;45.528;9.234;2023-04-01T05:50:52;8.88;;;3.13;;
40669;SDS011;26355;45.528;9.234;2023-04-01T05:53:19;11.05;;;3.50;;
40669;SDS011;26355;45.528;9.234;2023-04-01T05:55:45;8.93;;;3.25;;
40669;SDS011;26355;45.528;9.234;2023-04-01T05:58:10;10.52;;;3.10;;
40669;SDS011;26355;45.528;9.234;2023-04-01T06:00:36;8.95;;;3.20;;
40669;SDS011;26355;45.528;9.234;2023-04-01T06:03:02;9.52;;;3.20;;
40669;SDS011;26355;45.528;9.234;2023-04-01T06:05:35;9.88;;;3.33;;
40669;SDS011;26355;45.528;9.234;2023-04-01T06:08:11;9.93;;;3.30;;
40669;SDS011;26355;45.528;9.234;2023-04-01T06:11:01;9.55;;;3.17;;
40669;SDS011;26355;45.528;9.234;2023-04-01T06:25:42;9.38;;;2.85;;
40669;SDS011;26355;45.528;9.234;2023-04-01T06:27:48;11.38;;;3.42;;
40669;SDS011;26355;45.528;9.234;2023-04-01T06:42:34;10.18;;;3.20;;
40669;SDS011;26355;45.528;9.234;2023-04-01T06:45:18;11.80;;;3.00;;
40669;SDS011;26355;45.528;9.234;2023-04-01T06:56:36;8.63;;;3.20;;
40669;SDS011;26355;45.528;9.234;2023-04-01T07:04:39;10.07;;;3.33;;
40669;SDS011;26355;45.528;9.234;2023-04-01T07:13:02;9.45;;;3.03;;
40669;SDS011;26355;45.528;9.234;2023-04-01T07:15:33;10.10;;;3.20;;
40669;SDS011;26355;45.528;9.234;2023-04-01T07:18:05;8.98;;;3.10;;
40669;SDS011;26355;45.528;9.234;2023-04-01T07:20:44;10.25;;;2.90;;
40669;SDS011;26355;45.528;9.234;2023-04-01T07:25:59;9.10;;;3.15;;
40669;SDS011;26355;45.528;9.234;2023-04-01T07:28:39;10.00;;;3.00;;
40669;SDS011;26355;45.528;9.234;2023-04-01T07:50:10;10.88;;;3.72;;
40669;SDS011;26355;45.528;9.234;2023-04-01T08:01:41;10.25;;;2.92;;
40669;SDS011;26355;45.528;9.234;2023-04-01T08:07:10;8.48;;;2.50;;
40669;SDS011;26355;45.528;9.234;2023-04-01T08:18:17;9.05;;;2.97;;
40669;SDS011;26355;45.528;9.234;2023-04-01T08:23:22;6.90;;;2.35;;
40669;SDS011;26355;45.528;9.234;2023-04-01T08:29:04;8.23;;;2.30;;
40669;SDS011;26355;45.528;9.234;2023-04-01T08:31:45;10.18;;;2.63;;
40669;SDS011;26355;45.528;9.234;2023-04-01T08:34:26;7.60;;;2.30;;
40669;SDS011;26355;45.528;9.234;2023-04-01T08:37:02;6.50;;;2.60;;
40669;SDS011;26355;45.528;9.234;2023-04-01T08:39:39;10.05;;;2.67;;
40669;SDS011;26355;45.528;9.234;2023-04-01T08:42:19;9.10;;;2.35;;
40669;SDS011;26355;45.528;9.234;2023-04-01T08:45:17;31.98;;;8.48;;
40669;SDS011;26355;45.528;9.234;2023-04-01T08:47:46;8.25;;;2.67;;
40669;SDS011;26355;45.528;9.234;2023-04-01T08:50:49;10.82;;;2.97;;
40669;SDS011;26355;45.528;9.234;2023-04-01T08:56:17;10.65;;;2.50;;
40669;SDS011;26355;45.528;9.234;2023-04-01T09:01:39;6.10;;;1.90;;
40669;SDS011;26355;45.528;9.234;2023-04-01T09:04:25;8.48;;;2.15;;
40669;SDS011;26355;45.528;9.234;2023-04-01T09:17:49;6.20;;;1.50;;
40669;SDS011;26355;45.528;9.234;2023-04-01T09:43:16;7.13;;;2.05;;
40669;SDS011;26355;45.528;9.234;2023-04-01T09:50:54;5.57;;;1.83;;
40669;SDS011;26355;45.528;9.234;2023-04-01T09:59:31;7.47;;;2.10;;
40669;SDS011;26355;45.528;9.234;2023-04-01T10:13:19;6.97;;;2.35;;
40669;SDS011;26355;45.528;9.234;2023-04-01T10:16:15;6.78;;;1.77;;
40669;SDS011;26355;45.528;9.234;2023-04-01T10:51:20;9.90;;;2.83;;
40669;SDS011;26355;45.528;9.234;2023-04-01T10:56:51;5.75;;;1.92;;
40669;SDS011;26355;45.528;9.234;2023-04-01T11:08:08;7.72;;;2.03;;
40669;SDS011;26355;45.528;9.234;2023-04-01T11:27:29;6.93;;;1.70;;
40669;SDS011;26355;45.528;9.234;2023-04-01T11:38:17;5.95;;;1.55;;
40669;SDS011;26355;45.528;9.234;2023-04-01T11:43:29;6.30;;;1.63;;
40669;SDS011;26355;45.528;9.234;2023-04-01T11:49:21;4.30;;;1.55;;
40669;SDS011;26355;45.528;9.234;2023-04-01T11:55:19;4.05;;;1.65;;
40669;SDS011;26355;45.528;9.234;2023-04-01T12:00:36;3.75;;;1.15;;
40669;SDS011;26355;45.528;9.234;2023-04-01T12:03:33;4.78;;;1.40;;
40669;SDS011;26355;45.528;9.234;2023-04-01T12:09:29;6.78;;;1.75;;
40669;SDS011;26355;45.528;9.234;2023-04-01T12:12:17;5.90;;;1.70;;
40669;SDS011;26355;45.528;9.234;2023-04-01T12:20:54;1.67;;;1.17;;
40669;SDS011;26355;45.528;9.234;2023-04-01T12:26:28;4.15;;;1.30;;
40669;SDS011;26355;45.528;9.234;2023-04-01T12:29:09;2.58;;;1.00;;
40669;SDS011;26355;45.528;9.234;2023-04-01T12:32:14;3.63;;;1.02;;
40669;SDS011;26355;45.528;9.234;2023-04-01T12:40:17;2.17;;;0.80;;
40669;SDS011;26355;45.528;9.234;2023-04-01T12:43:05;2.17;;;1.05;;
40669;SDS011;26355;45.528;9.234;2023-04-01T12:45:49;1.27;;;0.85;;
40669;SDS011;26355;45.528;9.234;2023-04-01T12:48:36;2.58;;;0.80;;
40669;SDS011;26355;45.528;9.234;2023-04-01T12:59:27;3.00;;;1.00;;
40669;SDS011;26355;45.528;9.234;2023-04-01T13:02:22;1.42;;;0.85;;
40669;SDS011;26355;45.528;9.234;2023-04-01T13:16:40;2.22;;;0.82;;
40669;SDS011;26355;45.528;9.234;2023-04-01T13:19:17;4.57;;;1.00;;
40669;SDS011;26355;45.528;9.234;2023-04-01T13:21:51;2.95;;;1.02;;
40669;SDS011;26355;45.528;9.234;2023-04-01T13:24:42;2.63;;;0.57;;
40669;SDS011;26355;45.528;9.234;2023-04-01T13:29:36;0.82;;;0.57;;
40669;SDS011;26355;45.528;9.234;2023-04-01T13:37:59;3.70;;;0.80;;
40669;SDS011;26355;45.528;9.234;2023-04-01T13:43:49;1.10;;;0.75;;
40669;SDS011;26355;45.528;9.234;2023-04-01T13:46:34;1.13;;;0.60;;
40669;SDS011;26355;45.528;9.234;2023-04-01T13:49:28;2.00;;;0.70;;
40669;SDS011;26355;45.528;9.234;2023-04-01T14:09:11;1.67;;;0.60;;
40669;SDS011;26355;45.528;9.234;2023-04-01T14:12:13;2.78;;;0.52;;
40669;SDS011;26355;45.528;9.234;2023-04-01T14:20:41;4.95;;;1.20;;
40669;SDS011;26355;45.528;9.234;2023-04-01T14:26:20;2.95;;;0.70;;
40669;SDS011;26355;45.528;9.234;2023-04-01T14:31:47;1.77;;;0.70;;
40669;SDS011;26355;45.528;9.234;2023-04-01T14:34:38;1.77;;;0.50;;
40669;SDS011;26355;45.528;9.234;2023-04-01T14:40:27;1.95;;;0.60;;
40669;SDS011;26355;45.528;9.234;2023-04-01T14:49:15;0.75;;;0.63;;
40669;SDS011;26355;45.528;9.234;2023-04-01T14:52:03;2.13;;;0.80;;
40669;SDS011;26355;45.528;9.234;2023-04-01T14:54:41;2.88;;;0.70;;
40669;SDS011;26355;45.528;9.234;2023-04-01T14:59:46;3.90;;;0.80;;
40669;SDS011;26355;45.528;9.234;2023-04-01T15:08:11;2.03;;;0.68;;
40669;SDS011;26355;45.528;9.234;2023-04-01T15:19:11;1.35;;;0.70;;
40669;SDS011;26355;45.528;9.234;2023-04-01T15:24:26;1.85;;;0.60;;
40669;SDS011;26355;45.528;9.234;2023-04-01T15:32:29;1.17;;;0.60;;
40669;SDS011;26355;45.528;9.234;2023-04-01T15:38:10;1.17;;;0.65;;
40669;SDS011;26355;45.528;9.234;2023-04-01T15:49:26;4.53;;;0.95;;
40669;SDS011;26355;45.528;9.234;2023-04-01T15:57:49;1.83;;;0.70;;
40669;SDS011;26355;45.528;9.234;2023-04-01T16:03:18;2.50;;;0.98;;
40669;SDS011;26355;45.528;9.234;2023-04-01T16:08:40;4.57;;;1.15;;
40669;SDS011;26355;45.528;9.234;2023-04-01T16:22:38;4.75;;;1.02;;
40669;SDS011;26355;45.528;9.234;2023-04-01T16:25:20;4.57;;;0.77;;
40669;SDS011;26355;45.528;9.234;2023-04-01T16:44:54;3.40;;;0.98;;
40669;SDS011;26355;45.528;9.234;2023-04-01T16:47:47;2.92;;;0.90;;
40669;SDS011;26355;45.528;9.234;2023-04-01T16:50:24;1.98;;;0.85;;
40669;SDS011;26355;45.528;9.234;2023-04-01T16:53:09;5.87;;;0.80;;
40669;SDS011;26355;45.528;9.234;2023-04-01T16:55:42;2.80;;;0.90;;
40669;SDS011;26355;45.528;9.234;2023-04-01T16:58:14;5.80;;;0.93;;
40669;SDS011;26355;45.528;9.234;2023-04-01T17:00:50;3.78;;;0.95;;
40669;SDS011;26355;45.528;9.234;2023-04-01T17:03:26;2.75;;;0.70;;
40669;SDS011;26355;45.528;9.234;2023-04-01T17:08:42;2.38;;;0.65;;
40669;SDS011;26355;45.528;9.234;2023-04-01T17:11:24;5.28;;;0.95;;
40669;SDS011;26355;45.528;9.234;2023-04-01T17:22:54;2.33;;;1.05;;
40669;SDS011;26355;45.528;9.234;2023-04-01T17:25:30;6.35;;;1.27;;
40669;SDS011;26355;45.528;9.234;2023-04-01T17:28:24;4.60;;;1.13;;
40669;SDS011;26355;45.528;9.234;2023-04-01T17:44:56;4.45;;;1.08;;
40669;SDS011;26355;45.528;9.234;2023-04-01T17:47:49;4.95;;;1.50;;
40669;SDS011;26355;45.528;9.234;2023-04-01T17:50:36;5.20;;;1.05;;
40669;SDS011;26355;45.528;9.234;2023-04-01T17:56:28;3.63;;;1.40;;
40669;SDS011;26355;45.528;9.234;2023-04-01T18:02:03;5.90;;;1.50;;
40669;SDS011;26355;45.528;9.234;2023-04-01T18:15:37;4.60;;;1.38;;
40669;SDS011;26355;45.528;9.234;2023-04-01T18:18:17;6.70;;;1.52;;
40669;SDS011;26355;45.528;9.234;2023-04-01T18:20:59;5.25;;;1.52;;
40669;SDS011;26355;45.528;9.234;2023-04-01T18:23:51;6.93;;;1.75;;
40669;SDS011;26355;45.528;9.234;2023-04-01T18:26:26;4.05;;;1.52;;
40669;SDS011;26355;45.528;9.234;2023-04-01T18:32:12;10.10;;;2.60;;
40669;SDS011;26355;45.528;9.234;2023-04-01T18:37:17;7.40;;;2.25;;
40669;SDS011;26355;45.528;9.234;2023-04-01T18:39:47;6.05;;;2.00;;
40669;SDS011;26355;45.528;9.234;2023-04-01T18:42:31;10.73;;;2.30;;
40669;SDS011;26355;45.528;9.234;2023-04-01T18:51:11;10.13;;;2.45;;
40669;SDS011;26355;45.528;9.234;2023-04-01T18:53:39;6.88;;;1.92;;
40669;SDS011;26355;45.528;9.234;2023-04-01T18:56:25;10.10;;;2.33;;
40669;SDS011;26355;45.528;9.234;2023-04-01T19:04:47;10.68;;;2.50;;
40669;SDS011;26355;45.528;9.234;2023-04-01T19:10:15;11.13;;;3.10;;
40669;SDS011;26355;45.528;9.234;2023-04-01T19:13:09;14.43;;;2.75;;
40669;SDS011;26355;45.528;9.234;2023-04-01T19:15:41;8.38;;;2.22;;
40669;SDS011;26355;45.528;9.234;2023-04-01T19:24:12;13.32;;;2.83;;
40669;SDS011;26355;45.528;9.234;2023-04-01T19:29:39;11.95;;;3.20;;
40669;SDS011;26355;45.528;9.234;2023-04-01T19:37:56;11.07;;;3.35;;
40669;SDS011;26355;45.528;9.234;2023-04-01T19:43:29;12.35;;;3.40;;
40669;SDS011;26355;45.528;9.234;2023-04-01T19:46:17;13.57;;;3.80;;
40669;SDS011;26355;45.528;9.234;2023-04-01T19:51:59;13.48;;;3.45;;
40669;SDS011;26355;45.528;9.234;2023-04-01T19:57:47;12.32;;;3.63;;
40669;SDS011;26355;45.528;9.234;2023-04-01T20:00:40;12.50;;;3.30;;
40669;SDS011;26355;45.528;9.234;2023-04-01T20:03:13;11.05;;;3.53;;
40669;SDS011;26355;45.528;9.234;2023-04-01T20:06:08;9.80;;;2.95;;
40669;SDS011;26355;45.528;9.234;2023-04-01T20:08:39;8.13;;;2.65;;
40669;SDS011;26355;45.528;9.234;2023-04-01T20:11:30;12.07;;;2.80;;
40669;SDS011;26355;45.528;9.234;2023-04-01T20:14:09;7.78;;;2.55;;
40669;SDS011;26355;45.528;9.234;2023-04-01T20:19:39;8.93;;;2.38;;
40669;SDS011;26355;45.528;9.234;2023-04-01T20:24:57;7.20;;;2.65;;
40669;SDS011;26355;45.528;9.234;2023-04-01T20:27:39;8.15;;;2.50;;
40669;SDS011;26355;45.528;9.234;2023-04-01T20:30:30;8.38;;;2.63;;
40669;SDS011;26355;45.528;9.234;2023-04-01T20:35:41;6.55;;;2.05;;
40669;SDS011;26355;45.528;9.234;2023-04-01T20:41:30;6.25;;;2.25;;
40669;SDS011;26355;45.528;9.234;2023-04-01T20:49:49;7.90;;;2.20;;
40669;SDS011;26355;45.528;9.234;2023-04-01T20:52:37;9.05;;;2.33;;
40669;SDS011;26355;45.528;9.234;2023-04-01T21:00:34;7.05;;;2.33;;
40669;SDS011;26355;45.528;9.234;2023-04-01T21:03:42;8.20;;;2.47;;
40669;SDS011;26355;45.528;9.234;2023-04-01T21:09:24;10.55;;;3.63;;
40669;SDS011;26355;45.528;9.234;2023-04-01T21:14:42;11.30;;;3.08;;
40669;SDS011;26355;45.528;9.234;2023-04-01T21:17:33;12.40;;;3.10;;
40669;SDS011;26355;45.528;9.234;2023-04-01T21:23:29;9.60;;;2.70;;
40669;SDS011;26355;45.528;9.234;2023-04-01T21:25:41;9.18;;;2.80;;
40669;SDS011;26355;45.528;9.234;2023-04-01T21:31:05;10.10;;;2.90;;
40669;SDS011;26355;45.528;9.234;2023-04-01T21:33:45;11.63;;;2.80;;
40669;SDS011;26355;45.528;9.234;2023-04-01T21:44:50;11.48;;;2.90;;
40669;SDS011;26355;45.528;9.234;2023-04-01T22:00:42;13.32;;;3.47;;
40669;SDS011;26355;45.528;9.234;2023-04-01T22:03:31;12.30;;;3.63;;
40669;SDS011;26355;45.528;9.234;2023-04-01T22:14:14;9.85;;;3.05;;
40669;SDS011;26355;45.528;9.234;2023-04-01T22:16:59;11.25;;;3.22;;
40669;SDS011;26355;45.528;9.234;2023-04-01T22:19:40;13.15;;;3.60;;
40669;SDS011;26355;45.528;9.234;2023-04-01T22:22:17;12.40;;;3.60;;
40669;SDS011;26355;45.528;9.234;2023-04-01T22:25:08;15.05;;;3.55;;
40669;SDS011;26355;45.528;9.234;2023-04-01T22:27:44;12.27;;;3.90;;
40669;SDS011;26355;45.528;9.234;2023-04-01T22:32:53;9.38;;;2.78;;
40669;SDS011;26355;45.528;9.234;2023-04-01T22:35:39;9.20;;;2.83;;
40669;SDS011;26355;45.528;9.234;2023-04-01T22:41:09;10.98;;;3.20;;
40669;SDS011;26355;45.528;9.234;2023-04-01T22:43:40;11.82;;;3.15;;
40669;SDS011;26355;45.528;9.234;2023-04-01T22:48:58;12.38;;;3.88;;
40669;SDS011;26355;45.528;9.234;2023-04-01T22:54:43;11.75;;;3.53;;
40669;SDS011;26355;45.528;9.234;2023-04-01T22:59:52;11.55;;;3.35;;
40669;SDS011;26355;45.528;9.234;2023-04-01T23:02:25;11.75;;;3.50;;
40669;SDS011;26355;45.528;9.234;2023-04-01T23:05:00;14.02;;;3.60;;
40669;SDS011;26355;45.528;9.234;2023-04-01T23:10:00;11.10;;;3.47;;
40669;SDS011;26355;45.528;9.234;2023-04-01T23:12:27;9.35;;;3.15;;
40669;SDS011;26355;45.528;9.234;2023-04-01T23:14:55;13.27;;;4.33;;
40669;SDS011;26355;45.528;9.234;2023-04-01T23:17:30;11.73;;;3.20;;
40669;SDS011;26355;45.528;9.234;2023-04-01T23:22:59;10.15;;;3.28;;
40669;SDS011;26355;45.528;9.234;2023-04-01T23:33:50;11.32;;;3.33;;
40669;SDS011;26355;45.528;9.234;2023-04-01T23:36:00;11.82;;;3.10;;
40669;SDS011;26355;45.528;9.234;2023-04-01T23:38:39;11.68;;;3.13;;
40669;SDS011;26355;45.528;9.234;2023-04-01T23:41:06;9.60;;;3.10;;
40669;SDS011;26355;45.528;9.234;2023-04-01T23:43:41;9.45;;;3.10;;
40669;SDS011;26355;45.528;9.234;2023-04-01T23:46:10;11.32;;;3.58;;
40669;SDS011;26355;45.528;9.234;2023-04-01T23:48:41;14.15;;;4.78;;
40669;SDS011;26355;45.528;9.234;2023-04-01T23:51:28;15.93;;;6.57;;
40669;SDS011;26355;45.528;9.234;2023-04-01T23:54:10;12.40;;;4.15;;
40669;SDS011;26355;45.528;9.234;2023-04-01T23:56:54;13.07;;;3.90;;
40669;SDS011;26355;45.528;9.234;2023-04-01T23:59:29;10.32;;;2.92;;
